Time;durP1;ratioP1;P1;durP2;ratioP2;P2;SDS_P1;SDS_P2;PMS_P1;PMS_P2;Temp;Humidity;BMP_temperature;BMP_pressure;BME280_temperature;BME280_humidity;BME280_pressure;Samples;Min_cycle;Max_cycle;Signal;HPM_P1;HPM_P2
2023/10/31 00:01:49;;;;;;;7.97;2.33;;;11.00;99.90;;;;;;5071068;28;20094;-79
2023/10/31 00:04:15;;;;;;;7.75;2.00;;;11.00;99.90;;;;;;5071646;28;20048;-79
2023/10/31 00:06:41;;;;;;;8.43;2.28;;;11.00;99.90;;;;;;5070813;28;20440;-78
2023/10/31 00:09:06;;;;;;;10.15;2.03;;;10.90;99.90;;;;;;5070463;28;20135;-79
2023/10/31 00:11:32;;;;;;;9.00;2.30;;;10.90;99.90;;;;;;5054136;28;20086;-79
2023/10/31 00:13:58;;;;;;;6.35;1.92;;;11.00;99.90;;;;;;5071468;28;20044;-80
2023/10/31 00:16:24;;;;;;;4.30;2.03;;;11.00;99.90;;;;;;5071678;28;20048;-78
2023/10/31 00:18:49;;;;;;;6.50;2.10;;;10.90;99.90;;;;;;5020492;28;20053;-78
2023/10/31 00:21:15;;;;;;;8.45;2.00;;;10.90;99.90;;;;;;5071461;28;20047;-77
2023/10/31 00:23:45;;;;;;;6.00;1.90;;;10.90;99.90;;;;;;5070865;28;20044;-77
2023/10/31 00:26:11;;;;;;;6.28;2.10;;;10.90;99.90;;;;;;5071240;28;20520;-77
2023/10/31 00:28:37;;;;;;;5.57;1.80;;;10.90;99.90;;;;;;5070769;28;20099;-77
2023/10/31 00:31:03;;;;;;;5.45;1.80;;;10.90;99.90;;;;;;5054654;28;20083;-76
2023/10/31 00:33:29;;;;;;;4.93;1.83;;;10.90;99.90;;;;;;5071093;28;20056;-79
2023/10/31 00:35:55;;;;;;;8.48;2.10;;;10.90;99.90;;;;;;5070645;28;20084;-80
2023/10/31 00:38:21;;;;;;;8.10;1.80;;;10.90;99.90;;;;;;5070939;28;20093;-79
2023/10/31 00:40:47;;;;;;;9.10;2.20;;;10.90;99.90;;;;;;5070768;28;20466;-78
2023/10/31 00:43:12;;;;;;;12.32;2.38;;;10.80;99.90;;;;;;5054626;28;20048;-78
2023/10/31 00:45:38;;;;;;;9.13;1.90;;;10.80;99.90;;;;;;5070523;28;20087;-78
2023/10/31 00:48:04;;;;;;;8.07;2.55;;;10.80;99.90;;;;;;5070908;28;20051;-77
2023/10/31 00:50:30;;;;;;;7.45;1.60;;;10.80;99.90;;;;;;5070752;28;20048;-77
2023/10/31 00:52:56;;;;;;;6.85;1.90;;;10.80;99.90;;;;;;5071690;28;20097;-77
2023/10/31 00:55:21;;;;;;;5.53;1.60;;;10.70;99.90;;;;;;5072242;28;20051;-76
2023/10/31 00:57:47;;;;;;;5.53;1.83;;;10.70;99.90;;;;;;5071650;28;20135;-76
2023/10/31 01:00:13;;;;;;;7.05;1.98;;;10.80;99.90;;;;;;5072045;28;20436;-77
2023/10/31 01:02:39;;;;;;;5.82;1.95;;;10.70;99.90;;;;;;5071621;28;20048;-78
2023/10/31 01:05:05;;;;;;;6.30;1.70;;;10.70;99.90;;;;;;5071494;28;20102;-77
2023/10/31 01:07:31;;;;;;;5.80;1.52;;;10.70;99.90;;;;;;5055000;28;20095;-78
2023/10/31 01:09:56;;;;;;;5.43;1.73;;;10.70;99.90;;;;;;5071186;28;20044;-79
2023/10/31 01:12:22;;;;;;;3.88;1.40;;;10.70;99.90;;;;;;5055054;28;20048;-80
2023/10/31 01:14:48;;;;;;;2.47;1.20;;;10.70;99.90;;;;;;5072391;28;20390;-79
2023/10/31 01:17:14;;;;;;;4.40;1.50;;;10.60;99.90;;;;;;5053978;28;20055;-78
2023/10/31 01:19:39;;;;;;;6.68;1.60;;;10.60;99.90;;;;;;5073580;28;20478;-78
2023/10/31 01:22:07;;;;;;;5.10;1.67;;;10.60;99.90;;;;;;5040905;28;20522;-78
2023/10/31 01:24:32;;;;;;;5.28;1.50;;;10.60;99.90;;;;;;5074378;28;20056;-78
2023/10/31 01:26:58;;;;;;;7.75;1.90;;;10.60;99.90;;;;;;5057499;28;20554;-78
2023/10/31 01:29:24;;;;;;;6.28;1.73;;;10.60;99.90;;;;;;5074626;28;20052;-79
2023/10/31 01:31:49;;;;;;;6.00;1.80;;;10.60;99.90;;;;;;5057749;28;20052;-79
2023/10/31 01:34:15;;;;;;;7.80;1.90;;;10.60;99.90;;;;;;5076137;28;20090;-78
2023/10/31 01:36:41;;;;;;;5.85;2.10;;;10.60;99.90;;;;;;5076144;28;20055;-79
2023/10/31 01:39:07;;;;;;;6.68;2.42;;;10.60;99.90;;;;;;5074533;28;20478;-79
2023/10/31 01:41:33;;;;;;;8.73;2.40;;;10.60;99.90;;;;;;5075036;28;20048;-79
2023/10/31 01:43:59;;;;;;;5.40;1.80;;;10.60;99.90;;;;;;5075062;28;20045;-79
2023/10/31 01:46:24;;;;;;;6.82;1.80;;;10.50;99.90;;;;;;5058519;28;20047;-78
2023/10/31 01:48:50;;;;;;;5.18;1.77;;;10.60;99.90;;;;;;5074627;28;20049;-78
2023/10/31 01:51:16;;;;;;;6.25;1.63;;;10.60;99.90;;;;;;5057767;28;20047;-79
2023/10/31 01:53:42;;;;;;;6.25;1.70;;;10.50;99.90;;;;;;5057431;28;20052;-78
2023/10/31 01:56:08;;;;;;;4.07;1.80;;;10.50;99.90;;;;;;5057619;28;20119;-77
2023/10/31 01:58:38;;;;;;;6.32;2.03;;;10.50;99.90;;;;;;5057691;28;20040;-79
2023/10/31 02:01:05;;;;;;;6.28;1.60;;;10.40;99.90;;;;;;5073435;28;20498;-78
2023/10/31 02:03:31;;;;;;;4.63;1.50;;;10.40;99.90;;;;;;5073584;28;20364;-78
2023/10/31 02:05:57;;;;;;;6.25;1.67;;;10.40;99.90;;;;;;5073234;28;20343;-78
2023/10/31 02:08:25;;;;;;;4.25;1.63;;;10.40;99.90;;;;;;5073474;28;20063;-79
2023/10/31 02:10:51;;;;;;;8.18;1.80;;;10.40;99.90;;;;;;5073336;28;20048;-78
2023/10/31 02:13:18;;;;;;;6.47;1.90;;;10.40;99.90;;;;;;5073421;28;20041;-78
2023/10/31 02:15:44;;;;;;;4.45;1.58;;;10.40;99.90;;;;;;5056789;28;20108;-78
2023/10/31 02:18:10;;;;;;;6.50;1.55;;;10.40;99.90;;;;;;5072124;28;20056;-79
2023/10/31 02:20:37;;;;;;;7.13;1.80;;;10.40;99.90;;;;;;5040280;28;20040;-79
2023/10/31 02:23:04;;;;;;;3.38;1.38;;;10.40;99.90;;;;;;5055783;28;20053;-76
2023/10/31 02:25:30;;;;;;;6.75;1.85;;;10.40;99.90;;;;;;5073192;28;20056;-78
2023/10/31 02:27:55;;;;;;;4.63;1.60;;;10.40;99.90;;;;;;5056174;28;20086;-77
2023/10/31 02:30:21;;;;;;;7.43;1.60;;;10.40;99.90;;;;;;5039411;28;20091;-78
2023/10/31 02:32:47;;;;;;;6.28;1.60;;;10.40;99.90;;;;;;5072743;28;20051;-78
2023/10/31 02:35:15;;;;;;;6.43;1.58;;;10.40;99.90;;;;;;5072313;28;20048;-78
2023/10/31 02:37:41;;;;;;;5.45;1.63;;;10.40;99.90;;;;;;5072695;28;20385;-79
2023/10/31 02:40:07;;;;;;;6.82;1.90;;;10.40;99.90;;;;;;5072119;28;20131;-78
2023/10/31 02:42:33;;;;;;;7.30;1.80;;;10.40;99.90;;;;;;5056160;28;20490;-79
2023/10/31 02:44:59;;;;;;;6.47;1.92;;;10.40;99.90;;;;;;5072390;28;20088;-77
2023/10/31 02:47:25;;;;;;;8.73;2.05;;;10.40;99.90;;;;;;5055852;28;20059;-79
2023/10/31 02:49:51;;;;;;;9.10;2.20;;;10.40;99.90;;;;;;5055961;28;20392;-78
2023/10/31 02:52:16;;;;;;;8.38;1.98;;;10.40;99.90;;;;;;5039013;28;20131;-77
2023/10/31 02:54:42;;;;;;;6.25;2.30;;;10.30;99.90;;;;;;5072438;28;20210;-76
2023/10/31 02:57:08;;;;;;;6.78;2.10;;;10.40;99.90;;;;;;5072086;28;20044;-76
2023/10/31 02:59:33;;;;;;;13.23;2.63;;;10.30;99.90;;;;;;5072111;28;20124;-76
2023/10/31 03:02:00;;;;;;;7.88;2.25;;;10.30;99.90;;;;;;5072535;28;20129;-77
2023/10/31 03:04:25;;;;;;;9.80;2.30;;;10.30;99.90;;;;;;5072323;28;20102;-77
2023/10/31 03:06:51;;;;;;;5.90;2.28;;;10.30;99.90;;;;;;5055715;28;20434;-77
2023/10/31 03:09:17;;;;;;;11.13;2.72;;;10.30;99.90;;;;;;5055327;28;20045;-76
2023/10/31 03:11:42;;;;;;;9.05;2.60;;;10.30;99.90;;;;;;5071855;28;20524;-77
2023/10/31 03:14:08;;;;;;;8.82;2.85;;;10.30;99.90;;;;;;5071951;28;20109;-77
2023/10/31 03:16:34;;;;;;;10.07;3.10;;;10.30;99.90;;;;;;5072094;28;20423;-77
2023/10/31 03:19:00;;;;;;;8.52;3.00;;;10.30;99.90;;;;;;5071564;28;20097;-77
2023/10/31 03:21:25;;;;;;;6.78;2.70;;;10.30;99.90;;;;;;5055344;28;20470;-77
2023/10/31 03:23:55;;;;;;;11.40;2.65;;;10.30;99.90;;;;;;5072051;28;20044;-76
2023/10/31 03:26:22;;;;;;;11.30;3.17;;;10.30;99.90;;;;;;5071529;28;20083;-77
2023/10/31 03:28:48;;;;;;;8.90;2.92;;;10.30;99.90;;;;;;5072160;28;20049;-77
2023/10/31 03:31:14;;;;;;;8.40;2.75;;;10.30;99.90;;;;;;5071667;28;20066;-76
2023/10/31 03:33:41;;;;;;;8.98;3.25;;;10.30;99.90;;;;;;5071914;28;20078;-76
2023/10/31 03:36:08;;;;;;;11.32;2.85;;;10.30;99.90;;;;;;5055037;28;20375;-77
2023/10/31 03:38:34;;;;;;;8.60;3.63;;;10.30;99.90;;;;;;5071771;28;20089;-77
2023/10/31 03:41:01;;;;;;;9.98;4.13;;;10.30;99.90;;;;;;5071186;28;20463;-76
2023/10/31 03:43:26;;;;;;;9.63;3.50;;;10.30;99.90;;;;;;5070857;28;20040;-76
2023/10/31 03:45:52;;;;;;;10.75;3.50;;;10.30;99.90;;;;;;5054774;28;20453;-77
2023/10/31 03:48:18;;;;;;;8.20;3.67;;;10.30;99.90;;;;;;5070948;28;20040;-77
2023/10/31 03:50:44;;;;;;;8.88;3.88;;;10.30;99.90;;;;;;5072696;28;20090;-76
2023/10/31 03:53:10;;;;;;;8.73;3.80;;;10.30;99.90;;;;;;5071235;28;20616;-76
2023/10/31 03:55:36;;;;;;;7.57;3.58;;;10.30;99.90;;;;;;5071693;28;20040;-77
2023/10/31 03:58:02;;;;;;;7.00;3.78;;;10.30;99.90;;;;;;5071402;28;20210;-76
2023/10/31 04:00:28;;;;;;;7.45;3.70;;;10.30;99.90;;;;;;5071102;28;20498;-76
2023/10/31 04:02:53;;;;;;;8.77;3.90;;;10.30;99.90;;;;;;5054708;28;20137;-76
2023/10/31 04:05:19;;;;;;;7.00;3.47;;;10.30;99.90;;;;;;5054620;28;20088;-75
2023/10/31 04:07:49;;;;;;;7.93;3.42;;;10.30;99.90;;;;;;5072519;28;20243;-76
2023/10/31 04:10:16;;;;;;;6.38;3.45;;;10.30;99.90;;;;;;5078752;28;20043;-76
2023/10/31 04:12:42;;;;;;;8.65;3.50;;;10.40;99.90;;;;;;5069108;28;20078;-76
2023/10/31 04:15:08;;;;;;;9.75;3.55;;;10.30;99.90;;;;;;5055580;28;20045;-76
2023/10/31 04:17:34;;;;;;;8.38;3.25;;;10.40;99.90;;;;;;5071041;28;20144;-76
2023/10/31 04:20:00;;;;;;;13.30;3.22;;;10.40;99.90;;;;;;5071258;28;20045;-77
2023/10/31 04:22:26;;;;;;;8.30;3.45;;;10.40;99.90;;;;;;5054042;28;20044;-78
2023/10/31 04:24:51;;;;;;;6.90;3.13;;;10.40;99.90;;;;;;5071456;28;20090;-77
2023/10/31 04:27:17;;;;;;;7.07;3.45;;;10.40;99.90;;;;;;5070756;28;20049;-76
2023/10/31 04:29:44;;;;;;;8.88;3.05;;;10.40;99.90;;;;;;5071285;28;20087;-76
2023/10/31 04:32:10;;;;;;;6.72;3.38;;;10.40;99.90;;;;;;5071138;28;20117;-75
2023/10/31 04:34:35;;;;;;;12.35;3.30;;;10.40;99.90;;;;;;5070689;28;20123;-74
2023/10/31 04:37:02;;;;;;;7.57;2.83;;;10.40;99.90;;;;;;5054670;28;20048;-76
2023/10/31 04:39:27;;;;;;;7.18;3.00;;;10.40;99.90;;;;;;5070533;28;20127;-76
2023/10/31 04:41:53;;;;;;;8.00;3.15;;;10.40;99.90;;;;;;5071265;28;20156;-76
2023/10/31 04:44:19;;;;;;;5.38;2.47;;;10.40;99.90;;;;;;5071068;28;20052;-77
2023/10/31 04:46:44;;;;;;;6.13;2.80;;;10.40;99.90;;;;;;5070831;28;20572;-76
2023/10/31 04:49:10;;;;;;;8.25;2.58;;;10.40;99.90;;;;;;5071214;28;20041;-77
2023/10/31 04:51:36;;;;;;;8.35;2.78;;;10.30;99.90;;;;;;5054274;28;20131;-77
2023/10/31 04:54:03;;;;;;;6.43;2.63;;;10.10;99.90;;;;;;5073397;28;20405;-76
2023/10/31 04:56:29;;;;;;;7.30;2.38;;;10.40;99.90;;;;;;5074434;28;20049;-77
2023/10/31 04:58:54;;;;;;;6.47;2.42;;;10.40;99.90;;;;;;5074951;28;20075;-78
2023/10/31 05:01:20;;;;;;;6.03;2.22;;;10.30;99.90;;;;;;5074545;28;20048;-77
2023/10/31 05:03:46;;;;;;;7.25;2.17;;;10.40;99.90;;;;;;5024846;28;20048;-77
2023/10/31 05:06:11;;;;;;;9.10;2.28;;;10.40;99.90;;;;;;5074726;28;20045;-77
2023/10/31 05:08:37;;;;;;;5.00;2.30;;;10.40;99.90;;;;;;5074104;28;20437;-77
2023/10/31 05:11:03;;;;;;;7.07;2.97;;;10.40;99.90;;;;;;5057997;28;20055;-77
2023/10/31 05:13:29;;;;;;;6.50;2.72;;;10.40;99.90;;;;;;5074334;28;20053;-77
2023/10/31 05:15:55;;;;;;;5.60;2.60;;;10.40;99.90;;;;;;5058059;28;20168;-77
2023/10/31 05:18:21;;;;;;;5.00;2.28;;;10.40;99.90;;;;;;5057458;28;20056;-77
2023/10/31 05:20:47;;;;;;;5.97;2.22;;;10.40;99.90;;;;;;5057358;28;20049;-78
2023/10/31 05:23:13;;;;;;;5.47;2.58;;;10.40;99.90;;;;;;5075512;28;20260;-78
2023/10/31 05:25:38;;;;;;;4.32;2.08;;;10.40;99.90;;;;;;5074081;28;20137;-77
2023/10/31 05:28:05;;;;;;;6.30;2.25;;;10.40;99.90;;;;;;5057580;28;20091;-77
2023/10/31 05:30:31;;;;;;;5.05;2.05;;;10.40;99.90;;;;;;5073930;28;20077;-76
2023/10/31 05:32:56;;;;;;;4.45;2.42;;;10.40;99.90;;;;;;5074189;28;20127;-76
2023/10/31 05:35:22;;;;;;;4.55;2.40;;;10.40;99.90;;;;;;5074071;28;20389;-76
2023/10/31 05:37:48;;;;;;;4.32;2.13;;;10.40;99.90;;;;;;5073356;28;20047;-75
2023/10/31 05:40:16;;;;;;;4.68;1.67;;;10.40;99.90;;;;;;5057270;28;20535;-76
2023/10/31 05:42:41;;;;;;;2.88;1.42;;;10.50;99.90;;;;;;5074054;28;20058;-75
2023/10/31 05:45:08;;;;;;;3.35;1.30;;;10.40;99.90;;;;;;5074140;28;20044;-75
2023/10/31 05:47:33;;;;;;;5.05;1.50;;;10.40;99.90;;;;;;5073464;28;20135;-74
2023/10/31 05:49:59;;;;;;;2.40;1.20;;;10.40;99.90;;;;;;5056839;28;20514;-75
2023/10/31 05:52:32;;;;;;;3.25;1.50;;;10.40;99.90;;;;;;5073891;28;20044;-75
2023/10/31 05:54:58;;;;;;;3.72;1.63;;;10.40;99.90;;;;;;5040732;28;20109;-76
2023/10/31 05:57:23;;;;;;;2.80;1.38;;;10.30;99.90;;;;;;5073487;28;20040;-75
2023/10/31 05:59:49;;;;;;;6.28;1.67;;;10.30;99.90;;;;;;5072560;28;20040;-76
2023/10/31 06:02:16;;;;;;;2.20;1.40;;;10.30;99.90;;;;;;5073271;28;20097;-76
2023/10/31 06:04:42;;;;;;;3.70;1.45;;;10.30;99.90;;;;;;5073085;28;20047;-77
2023/10/31 06:07:07;;;;;;;3.35;1.75;;;10.30;99.90;;;;;;5073782;28;20115;-77
2023/10/31 06:09:33;;;;;;;4.20;1.60;;;10.30;99.90;;;;;;5041470;28;20086;-76
2023/10/31 06:12:00;;;;;;;5.22;1.73;;;10.30;99.90;;;;;;5074195;28;20546;-76
2023/10/31 06:14:25;;;;;;;5.53;2.70;;;10.30;99.90;;;;;;5040017;28;20092;-76
2023/10/31 06:16:51;;;;;;;5.30;2.60;;;10.30;99.90;;;;;;5072862;28;20056;-74
2023/10/31 06:19:17;;;;;;;5.15;2.58;;;10.30;99.90;;;;;;5073507;28;20109;-74
2023/10/31 06:21:43;;;;;;;4.25;2.33;;;10.40;99.90;;;;;;5075308;28;20056;-73
2023/10/31 06:24:09;;;;;;;5.90;2.85;;;10.40;99.90;;;;;;5079139;28;20052;-74
2023/10/31 06:26:35;;;;;;;7.75;2.75;;;10.40;99.90;;;;;;5074433;28;20037;-76
2023/10/31 06:29:01;;;;;;;5.00;2.60;;;10.30;99.90;;;;;;5073400;28;20053;-75
2023/10/31 06:31:27;;;;;;;4.35;2.80;;;10.40;99.90;;;;;;5072982;28;20427;-74
2023/10/31 06:33:52;;;;;;;4.45;2.80;;;10.40;99.90;;;;;;5072407;28;20084;-76
2023/10/31 06:36:18;;;;;;;6.03;2.70;;;10.40;99.90;;;;;;5073065;28;20083;-75
2023/10/31 06:38:44;;;;;;;5.25;2.85;;;10.40;99.90;;;;;;5056836;28;20041;-76
2023/10/31 06:41:10;;;;;;;4.82;2.78;;;10.40;99.90;;;;;;5056858;28;20156;-76
2023/10/31 06:43:35;;;;;;;5.20;2.38;;;10.40;99.90;;;;;;5073345;28;20056;-77
2023/10/31 06:46:04;;;;;;;6.57;2.95;;;10.40;99.90;;;;;;5073027;28;20386;-77
2023/10/31 06:48:29;;;;;;;5.20;2.38;;;10.40;99.90;;;;;;5073602;28;20513;-77
2023/10/31 06:50:55;;;;;;;6.32;2.65;;;10.40;99.90;;;;;;5039958;28;20044;-77
2023/10/31 06:53:21;;;;;;;5.63;3.00;;;10.40;99.90;;;;;;5073333;28;20044;-76
2023/10/31 06:55:47;;;;;;;7.72;3.17;;;10.40;99.90;;;;;;5072783;28;20051;-77
2023/10/31 06:58:13;;;;;;;6.07;3.00;;;10.50;99.90;;;;;;5056107;28;20052;-76
2023/10/31 07:00:38;;;;;;;6.20;2.90;;;10.50;99.90;;;;;;5073343;28;20048;-75
2023/10/31 07:03:08;;;;;;;5.15;2.50;;;10.50;99.90;;;;;;5055856;28;20052;-76
2023/10/31 07:05:36;;;;;;;5.13;2.33;;;10.50;99.90;;;;;;5073262;28;20048;-76
2023/10/31 07:08:03;;;;;;;4.50;2.67;;;10.50;99.90;;;;;;5072872;28;20040;-76
2023/10/31 07:10:29;;;;;;;7.78;2.70;;;10.50;99.90;;;;;;5073017;28;20059;-77
2023/10/31 07:12:55;;;;;;;5.25;2.70;;;10.50;99.90;;;;;;5072414;28;20052;-76
2023/10/31 07:15:21;;;;;;;4.95;2.88;;;10.50;99.90;;;;;;5055291;28;20102;-76
2023/10/31 07:17:47;;;;;;;7.70;3.03;;;10.50;99.90;;;;;;5054926;28;20092;-75
2023/10/31 07:20:13;;;;;;;8.82;2.95;;;10.50;99.90;;;;;;5072292;28;20067;-76
2023/10/31 07:22:39;;;;;;;4.82;2.70;;;10.50;99.90;;;;;;5072533;28;20473;-75
2023/10/31 07:25:06;;;;;;;9.65;3.58;;;10.50;99.90;;;;;;5072063;28;20580;-75
2023/10/31 07:27:32;;;;;;;11.68;4.50;;;10.60;99.90;;;;;;5055111;28;20051;-74
2023/10/31 07:29:58;;;;;;;8.10;4.60;;;10.60;99.90;;;;;;5071453;28;20139;-76
2023/10/31 07:32:25;;;;;;;7.65;4.50;;;10.50;99.90;;;;;;5071970;28;20087;-76
2023/10/31 07:34:52;;;;;;;8.85;5.10;;;10.50;99.90;;;;;;5054909;28;20467;-75
2023/10/31 07:37:17;;;;;;;11.02;4.78;;;10.50;99.90;;;;;;5072031;28;20390;-76
2023/10/31 07:39:43;;;;;;;13.43;5.35;;;10.60;99.90;;;;;;5071410;28;20040;-75
2023/10/31 07:42:09;;;;;;;10.40;4.88;;;10.60;99.90;;;;;;5071536;28;20044;-75
2023/10/31 07:44:35;;;;;;;7.63;4.40;;;10.60;99.90;;;;;;5071697;28;20135;-75
2023/10/31 07:47:05;;;;;;;9.00;4.75;;;10.60;99.90;;;;;;5071580;28;20344;-75
2023/10/31 07:49:30;;;;;;;8.02;3.72;;;10.80;99.90;;;;;;5022396;28;20057;-76
2023/10/31 07:51:56;;;;;;;9.73;3.75;;;10.70;99.90;;;;;;5071883;28;20053;-74
2023/10/31 07:54:22;;;;;;;6.72;2.97;;;10.70;99.90;;;;;;5038814;28;20462;-73
2023/10/31 07:56:48;;;;;;;7.15;3.00;;;10.70;99.90;;;;;;5071934;28;20110;-76
2023/10/31 07:59:13;;;;;;;10.88;2.83;;;10.80;99.90;;;;;;5055891;28;20059;-76
2023/10/31 08:01:39;;;;;;;7.68;2.55;;;10.70;99.90;;;;;;5072628;28;20048;-75
2023/10/31 08:04:05;;;;;;;6.25;2.13;;;10.70;99.90;;;;;;5056450;28;20127;-75
2023/10/31 08:06:30;;;;;;;8.95;2.00;;;10.80;99.90;;;;;;5075046;28;20105;-76
2023/10/31 08:08:56;;;;;;;6.07;1.80;;;10.80;99.90;;;;;;5072913;28;20474;-75
2023/10/31 08:11:22;;;;;;;5.88;1.60;;;10.80;99.90;;;;;;5072034;28;20044;-75
2023/10/31 08:13:48;;;;;;;5.43;1.77;;;10.90;99.90;;;;;;5072708;28;20090;-75
2023/10/31 08:16:21;;;;;;;5.70;1.50;;;11.00;99.90;;;;;;5071267;28;20378;-74
2023/10/31 08:18:46;;;;;;;11.13;2.10;;;11.10;99.90;;;;;;5071325;28;20052;-75
2023/10/31 08:21:21;;;;;;;4.85;1.50;;;11.20;99.90;;;;;;5088671;28;20418;-75
2023/10/31 08:23:47;;;;;;;20.55;4.10;;;11.20;99.90;;;;;;5073693;28;20052;-76
2023/10/31 08:26:13;;;;;;;6.65;1.50;;;11.30;99.90;;;;;;5073811;28;20101;-75
2023/10/31 08:28:40;;;;;;;5.78;1.67;;;11.30;99.90;;;;;;5080209;28;20044;-76
2023/10/31 08:31:06;;;;;;;8.82;1.67;;;11.30;99.90;;;;;;5083512;28;20056;-75
2023/10/31 08:33:31;;;;;;;6.18;1.50;;;11.30;99.90;;;;;;5064314;28;20044;-76
2023/10/31 08:35:58;;;;;;;5.28;1.95;;;11.30;99.90;;;;;;5059356;28;20494;-76
2023/10/31 08:38:24;;;;;;;4.13;1.50;;;11.40;99.90;;;;;;5042670;28;20041;-75
2023/10/31 08:40:49;;;;;;;7.00;1.65;;;11.30;99.90;;;;;;5075822;28;20098;-77
2023/10/31 08:46:56;;;;;;;11.00;1.85;;;11.40;99.90;;;;;;5076706;28;20035;-75
2023/10/31 08:49:22;;;;;;;11.02;2.30;;;11.50;99.90;;;;;;5076636;28;20429;-75
2023/10/31 08:51:48;;;;;;;10.95;2.08;;;11.50;99.90;;;;;;5075532;28;20044;-75
2023/10/31 08:54:13;;;;;;;9.13;1.85;;;11.50;99.90;;;;;;5075373;28;20036;-75
2023/10/31 08:56:39;;;;;;;11.82;1.75;;;11.60;99.90;;;;;;5075834;28;20055;-76
2023/10/31 08:59:05;;;;;;;11.32;2.20;;;11.60;99.90;;;;;;5091972;28;20482;-76
2023/10/31 09:01:30;;;;;;;8.73;1.63;;;11.50;99.90;;;;;;5076986;28;20052;-73
2023/10/31 09:03:58;;;;;;;9.77;1.80;;;11.60;99.90;;;;;;5075775;28;20055;-75
2023/10/31 09:06:24;;;;;;;5.72;1.55;;;11.50;99.90;;;;;;5075443;28;20054;-74
2023/10/31 09:08:50;;;;;;;7.28;1.63;;;11.50;99.90;;;;;;5026254;28;20036;-75
2023/10/31 09:11:16;;;;;;;6.65;1.67;;;11.30;99.90;;;;;;5074932;28;20459;-75
2023/10/31 09:13:42;;;;;;;8.45;1.50;;;11.30;99.90;;;;;;5076143;28;20044;-74
2023/10/31 09:16:08;;;;;;;10.30;1.77;;;11.20;99.90;;;;;;5075561;28;20058;-77
2023/10/31 09:18:34;;;;;;;6.50;1.70;;;11.20;99.90;;;;;;5058713;28;20048;-77
2023/10/31 09:21:00;;;;;;;7.28;1.25;;;11.20;99.90;;;;;;5075565;28;20135;-78
2023/10/31 09:23:26;;;;;;;8.13;2.22;;;11.10;99.90;;;;;;5058846;28;20462;-75
2023/10/31 09:25:52;;;;;;;5.65;1.08;;;11.10;99.90;;;;;;5059072;28;20040;-76
2023/10/31 09:28:18;;;;;;;7.50;1.33;;;11.10;99.90;;;;;;5075191;28;20049;-76
2023/10/31 09:30:43;;;;;;;8.75;1.90;;;11.10;99.90;;;;;;5075495;28;20059;-76
2023/10/31 09:33:09;;;;;;;7.03;1.42;;;11.10;99.90;;;;;;5058227;28;20052;-75
2023/10/31 09:35:35;;;;;;;6.00;1.15;;;11.10;99.90;;;;;;5058522;28;20044;-75
2023/10/31 09:38:00;;;;;;;10.60;1.52;;;11.00;99.90;;;;;;5058440;28;20528;-82
2023/10/31 09:40:26;;;;;;;5.72;1.00;;;11.00;99.90;;;;;;5057173;28;20047;-79
2023/10/31 09:42:52;;;;;;;3.22;0.75;;;11.10;99.90;;;;;;5058519;28;20372;-75
2023/10/31 09:45:18;;;;;;;5.72;1.00;;;11.10;99.90;;;;;;5091388;28;20147;-79
2023/10/31 09:47:44;;;;;;;5.85;0.98;;;11.10;99.90;;;;;;5075321;28;20482;-80
2023/10/31 09:50:10;;;;;;;3.80;0.80;;;11.20;99.90;;;;;;5061305;28;20048;-85
2023/10/31 09:52:37;;;;;;;3.30;0.90;;;11.30;99.90;;;;;;5063194;28;20135;-86
2023/10/31 09:55:03;;;;;;;6.68;0.90;;;11.30;99.90;;;;;;5080344;28;20048;-84
2023/10/31 09:57:29;;;;;;;3.80;1.08;;;11.40;99.90;;;;;;5077330;28;20045;-87
2023/10/31 09:59:55;;;;;;;5.40;1.20;;;11.50;99.90;;;;;;5077063;28;20036;-85
2023/10/31 10:02:21;;;;;;;3.83;1.20;;;11.50;99.90;;;;;;5059789;28;20059;-81
2023/10/31 10:04:48;;;;;;;5.70;1.10;;;11.60;99.90;;;;;;5092741;28;20051;-81
2023/10/31 10:07:17;;;;;;;7.35;1.20;;;11.60;99.90;;;;;;5075514;28;20044;-82
2023/10/31 10:09:44;;;;;;;4.28;1.20;;;11.60;99.90;;;;;;5058516;28;20056;-82
2023/10/31 10:12:12;;;;;;;2.22;0.88;;;11.70;99.90;;;;;;5091406;28;20052;-81
2023/10/31 10:14:39;;;;;;;3.25;1.05;;;11.80;99.90;;;;;;5075171;28;20051;-80
2023/10/31 10:17:21;;;;;;;6.78;1.48;;;11.80;99.90;;;;;;5075522;28;20084;-81
2023/10/31 10:19:47;;;;;;;7.55;1.20;;;11.90;99.90;;;;;;5075803;28;20049;-82
2023/10/31 10:22:14;;;;;;;5.65;1.20;;;11.90;99.90;;;;;;5076008;28;20139;-81
2023/10/31 10:24:41;;;;;;;7.70;1.67;;;12.00;99.90;;;;;;5076251;28;20041;-82
2023/10/31 10:27:10;;;;;;;5.20;1.17;;;12.00;99.90;;;;;;5076721;28;20065;-82
2023/10/31 10:29:38;;;;;;;4.95;1.13;;;11.90;99.90;;;;;;5044196;28;20082;-83
2023/10/31 10:32:10;;;;;;;4.82;1.05;;;11.80;99.90;;;;;;5075634;28;20053;-83
2023/10/31 10:34:36;;;;;;;4.63;1.30;;;11.90;99.90;;;;;;5075247;28;20048;-80
2023/10/31 10:37:05;;;;;;;3.63;0.98;;;11.90;99.90;;;;;;5040645;28;20064;-79
2023/10/31 10:39:33;;;;;;;5.15;1.20;;;12.00;99.90;;;;;;5074686;28;20047;-81
2023/10/31 10:42:01;;;;;;;8.95;1.58;;;12.00;99.90;;;;;;5078628;28;20125;-80
2023/10/31 10:44:38;;;;;;;4.15;1.40;;;12.00;99.90;;;;;;5088114;28;20052;-80
2023/10/31 10:47:07;;;;;;;3.08;1.08;;;12.00;99.90;;;;;;5087016;28;20494;-81
2023/10/31 10:49:35;;;;;;;4.90;1.15;;;12.00;99.90;;;;;;5074766;28;20234;-80
2023/10/31 10:52:17;;;;;;;4.90;1.23;;;12.00;99.90;;;;;;5073157;28;20052;-85
2023/10/31 10:54:56;;;;;;;3.30;1.00;;;12.00;99.90;;;;;;5074863;28;20052;-84
2023/10/31 10:57:40;;;;;;;8.35;1.52;;;12.10;99.90;;;;;;5074751;28;20041;-82
2023/10/31 11:00:12;;;;;;;3.97;1.10;;;12.20;99.90;;;;;;5074285;28;20490;-83
2023/10/31 11:02:42;;;;;;;5.28;1.08;;;12.20;99.90;;;;;;5074692;28;20144;-82
2023/10/31 11:05:09;;;;;;;3.25;1.02;;;12.20;99.90;;;;;;5075409;28;20390;-84
2023/10/31 11:07:39;;;;;;;3.95;1.42;;;12.20;99.90;;;;;;5074038;28;20044;-85
2023/10/31 11:10:06;;;;;;;6.18;1.48;;;12.20;99.90;;;;;;5073852;28;20055;-83
2023/10/31 11:12:37;;;;;;;3.47;1.20;;;12.20;99.90;;;;;;5074131;28;20080;-78
2023/10/31 11:15:04;;;;;;;6.40;1.70;;;12.20;99.90;;;;;;5072871;28;20056;-78
2023/10/31 11:17:39;;;;;;;10.57;1.55;;;12.20;99.90;;;;;;5073482;28;20403;-79
2023/10/31 11:20:09;;;;;;;5.85;1.63;;;12.30;99.90;;;;;;5074295;28;20533;-78
2023/10/31 11:22:42;;;;;;;5.35;1.23;;;12.30;99.90;;;;;;5074003;28;20044;-79
2023/10/31 11:25:19;;;;;;;9.73;2.15;;;12.30;99.90;;;;;;5074205;28;20047;-80
2023/10/31 11:27:45;;;;;;;8.77;1.80;;;12.40;99.90;;;;;;5073945;28;20109;-80
2023/10/31 11:30:34;;;;;;;5.88;2.05;;;12.30;99.90;;;;;;5074202;28;20056;-80
2023/10/31 11:33:01;;;;;;;5.50;1.42;;;12.40;99.90;;;;;;5091120;28;20468;-81
2023/10/31 11:35:30;;;;;;;7.90;1.55;;;12.30;99.90;;;;;;5072638;28;20052;-81
2023/10/31 11:38:11;;;;;;;9.05;2.05;;;12.30;99.90;;;;;;5073191;28;20041;-81
2023/10/31 11:41:01;;;;;;;9.40;1.95;;;12.20;99.90;;;;;;5057487;28;20036;-82
2023/10/31 11:43:38;;;;;;;5.18;1.50;;;12.10;99.90;;;;;;5073255;28;20393;-76
2023/10/31 11:46:04;;;;;;;10.00;1.98;;;12.10;99.90;;;;;;5072155;28;20493;-72
2023/10/31 11:48:47;;;;;;;6.13;1.23;;;12.10;99.90;;;;;;5072640;28;20040;-72
2023/10/31 11:51:13;;;;;;;7.50;1.60;;;12.10;99.90;;;;;;5071923;28;20138;-72
2023/10/31 11:53:40;;;;;;;12.57;1.77;;;12.10;99.90;;;;;;5071444;28;20047;-71
2023/10/31 11:56:08;;;;;;;4.63;1.30;;;12.20;99.90;;;;;;5055093;28;20055;-71
2023/10/31 11:58:34;;;;;;;5.80;1.67;;;12.30;99.90;;;;;;5088309;28;20133;-73
2023/10/31 12:01:05;;;;;;;5.47;1.60;;;12.30;99.90;;;;;;5072138;28;20048;-73
2023/10/31 12:03:41;;;;;;;9.52;1.85;;;12.40;99.90;;;;;;5071125;28;20494;-73
2023/10/31 12:06:08;;;;;;;8.57;2.17;;;12.40;99.90;;;;;;5072267;28;20044;-72
2023/10/31 12:08:37;;;;;;;9.55;2.03;;;12.50;99.90;;;;;;5071634;28;20087;-72
2023/10/31 12:11:23;;;;;;;7.00;1.60;;;12.50;99.90;;;;;;5088359;28;20052;-73
2023/10/31 12:14:05;;;;;;;6.85;1.63;;;12.40;99.90;;;;;;5070919;28;20106;-71
2023/10/31 12:16:33;;;;;;;7.75;1.70;;;12.40;99.90;;;;;;5071112;28;20048;-72
2023/10/31 12:19:03;;;;;;;7.07;1.55;;;12.40;99.90;;;;;;5070554;28;20055;-72
2023/10/31 12:21:39;;;;;;;9.82;1.73;;;12.30;99.90;;;;;;5071095;28;20052;-73
2023/10/31 12:24:06;;;;;;;6.05;1.60;;;12.30;99.90;;;;;;5071439;28;20055;-71
2023/10/31 12:26:35;;;;;;;3.92;1.27;;;12.30;99.90;;;;;;5072385;28;20127;-73
2023/10/31 12:29:15;;;;;;;12.95;1.95;;;12.20;99.90;;;;;;5071422;28;20094;-71
2023/10/31 12:31:52;;;;;;;7.10;1.50;;;12.20;99.90;;;;;;5071076;28;20051;-72
2023/10/31 12:34:20;;;;;;;7.22;1.67;;;12.10;99.90;;;;;;5071851;28;20477;-71
2023/10/31 12:36:51;;;;;;;9.93;1.60;;;12.00;99.90;;;;;;5071022;28;20111;-72
2023/10/31 12:39:20;;;;;;;9.80;2.25;;;11.90;99.90;;;;;;5070996;28;20044;-72
2023/10/31 12:41:47;;;;;;;3.90;1.17;;;11.90;99.90;;;;;;5070802;28;20080;-72
2023/10/31 12:44:18;;;;;;;7.65;1.65;;;11.80;99.90;;;;;;5054521;28;20052;-73
2023/10/31 12:46:43;;;;;;;4.03;1.17;;;11.80;99.90;;;;;;5071178;28;20097;-71
2023/10/31 12:49:16;;;;;;;8.88;1.40;;;11.70;99.90;;;;;;5037898;28;20044;-72